Saint-Eustache, Canada
Current Conditions -  °F | °C
As of 12:00 AM on Saturday 29 Nov 2014 (Local Time) from CYMX Reporting Station
Scattered Clouds Scattered Clouds  
Wind Chill: -9°   Ceiling: Unl
Heat Index: -9°   Visibility: 25mi
Dew Point: -12°   Wind: 3mph
Humidity: 79%   Direction: 240°WSW
Pressure: 30.19"   Gusts: NA
Location:  45.57°N, 73.9°W
Report Text: CYMX 290500Z 24003KT 25SM SCT130 M09/M12 A3019 RMK AC3 SLP228
Loading
Personal Weather Stations






























Interactive Weather Map New forecast layout! Learn more

10-Day Weather Forecast

Advertisements
Track Severe Weather on mobile